createdAt,value
2022-10-17T00:02:46.070Z,92.88
2022-10-17T00:07:52.512Z,93.02
2022-10-17T00:12:58.363Z,93.54
2022-10-17T00:18:04.873Z,93.35
2022-10-17T00:23:11.051Z,94.02
2022-10-17T00:28:17.491Z,95.77
2022-10-17T00:33:23.467Z,96.22
2022-10-17T00:38:29.456Z,95.86
2022-10-17T00:43:53.131Z,95.83
2022-10-17T00:49:01.869Z,95.91
2022-10-17T00:54:09.876Z,95.89
2022-10-17T00:59:17.818Z,95.73
2022-10-17T01:04:24.262Z,96.06
2022-10-17T01:09:32.075Z,95.98
2022-10-17T01:14:47.535Z,96.03
2022-10-17T01:20:14.931Z,95.66
2022-10-17T01:25:30.365Z,95.43
2022-10-17T01:30:56.488Z,95.95
2022-10-17T01:36:11.504Z,96.14
2022-10-17T01:41:25.775Z,97.27
2022-10-17T01:46:36.437Z,96.46
2022-10-17T01:51:46.662Z,96.24
2022-10-17T01:56:58.425Z,95.76
2022-10-17T02:02:06.137Z,95.75
2022-10-17T02:07:14.793Z,96.32
2022-10-17T02:12:41.550Z,96.10
2022-10-17T02:17:58.110Z,95.60
2022-10-17T02:23:10.552Z,96.05
2022-10-17T02:28:24.321Z,95.35
2022-10-17T02:33:35.185Z,95.27
2022-10-17T02:38:43.282Z,95.56
2022-10-17T02:43:52.675Z,95.25
2022-10-17T02:49:02.853Z,95.03
2022-10-17T02:54:14.145Z,95.65
2022-10-17T02:59:24.912Z,95.61
2022-10-17T03:04:30.924Z,95.56
2022-10-17T03:09:36.906Z,95.60
2022-10-17T03:14:43.066Z,95.68
2022-10-17T03:19:48.998Z,95.87
2022-10-17T03:24:54.723Z,95.47
2022-10-17T03:30:00.726Z,96.85
2022-10-17T03:35:08.397Z,98.78
2022-10-17T03:40:18.016Z,97.43
2022-10-17T03:45:24.110Z,97.56
2022-10-17T03:50:30.519Z,97.42
2022-10-17T03:55:36.849Z,97.85
2022-10-17T04:00:43.295Z,99.44
2022-10-17T04:05:49.330Z,100.00
2022-10-17T04:11:00.315Z,100.00
2022-10-17T04:16:09.280Z,100.00
2022-10-17T04:21:19.294Z,99.85
2022-10-17T04:26:26.380Z,99.51
2022-10-17T04:31:32.268Z,99.66
2022-10-17T04:36:44.050Z,98.96
2022-10-17T04:41:50.051Z,98.53
2022-10-17T04:46:55.884Z,98.95
2022-10-17T04:52:02.167Z,99.25
2022-10-17T04:57:17.574Z,98.84
2022-10-17T05:02:30.828Z,98.73
2022-10-17T05:07:41.323Z,98.86
2022-10-17T05:12:53.169Z,98.51
2022-10-17T05:18:02.318Z,98.47
2022-10-17T05:23:08.781Z,98.76
2022-10-17T05:28:18.588Z,99.19
2022-10-17T05:33:25.758Z,99.59
2022-10-17T05:38:33.241Z,99.71
2022-10-17T05:43:39.483Z,99.24
2022-10-17T05:48:45.913Z,98.52
2022-10-17T05:53:52.321Z,98.06
2022-10-17T05:59:02.480Z,97.88
2022-10-17T06:04:35.269Z,97.69
2022-10-17T06:09:42.088Z,97.20
2022-10-17T06:14:47.969Z,96.75
2022-10-17T06:19:54.569Z,95.65
2022-10-17T06:25:02.023Z,91.42
2022-10-17T06:30:10.104Z,88.03
2022-10-17T06:35:16.957Z,85.54
2022-10-17T06:40:23.017Z,83.23
2022-10-17T06:45:29.149Z,80.70
2022-10-17T06:51:11.840Z,79.79
2022-10-17T06:56:37.834Z,78.41
2022-10-17T07:01:58.039Z,78.08
2022-10-17T07:07:04.619Z,78.21
2022-10-17T07:12:12.867Z,78.38
2022-10-17T07:17:23.087Z,78.08
2022-10-17T07:22:29.141Z,77.09
2022-10-17T07:27:36.875Z,74.34
2022-10-17T07:32:43.511Z,71.04
2022-10-17T07:37:49.651Z,67.08
2022-10-17T07:42:58.152Z,63.87
2022-10-17T07:48:05.437Z,61.98
2022-10-17T07:53:12.590Z,60.06
2022-10-17T07:58:19.023Z,58.69
2022-10-17T08:03:24.757Z,57.31
2022-10-17T08:08:31.166Z,52.69
2022-10-17T08:13:38.986Z,53.09
2022-10-17T08:18:45.106Z,54.32
2022-10-17T08:23:50.959Z,55.52
2022-10-17T08:28:57.010Z,56.77
2022-10-17T08:34:03.105Z,58.42
2022-10-17T08:39:08.967Z,58.31
2022-10-17T08:44:31.374Z,57.02
2022-10-17T08:49:47.034Z,54.32
2022-10-17T08:54:53.118Z,51.59
2022-10-17T08:59:59.249Z,48.90
2022-10-17T09:05:28.643Z,46.93
2022-10-17T09:10:38.071Z,46.19
2022-10-17T09:16:01.410Z,44.65
2022-10-17T09:21:18.446Z,43.19
2022-10-17T09:26:25.983Z,42.36
2022-10-17T09:31:40.973Z,41.37
2022-10-17T09:36:46.885Z,40.74
2022-10-17T09:41:55.540Z,40.04
2022-10-17T09:47:26.182Z,40.45
2022-10-17T09:52:36.360Z,41.02
2022-10-17T09:57:57.313Z,41.22
2022-10-17T10:03:17.334Z,40.45
2022-10-17T10:08:26.844Z,40.67
2022-10-17T10:13:33.964Z,40.82
2022-10-17T10:18:40.151Z,40.69
2022-10-17T10:24:02.600Z,40.19
2022-10-17T10:29:22.801Z,40.06
2022-10-17T10:34:31.381Z,41.39
2022-10-17T10:39:50.243Z,41.58
2022-10-17T10:44:59.185Z,41.53
2022-10-17T10:50:23.806Z,41.95
2022-10-17T10:55:34.762Z,42.54
2022-10-17T11:09:24.691Z,43.81
2022-10-17T11:14:38.502Z,44.21
2022-10-17T11:19:53.232Z,44.42
2022-10-17T11:25:03.923Z,44.42
2022-10-17T11:30:14.989Z,43.77
2022-10-17T11:35:24.682Z,44.69
2022-10-17T11:40:33.997Z,44.95
2022-10-17T11:55:56.278Z,45.32
2022-10-17T12:01:12.921Z,45.08
2022-10-17T12:06:29.447Z,45.38
2022-10-17T12:11:45.778Z,45.30
2022-10-17T12:16:52.418Z,45.28
2022-10-17T12:22:02.473Z,45.32
2022-10-17T12:27:36.051Z,45.70
2022-10-17T12:33:07.487Z,46.34
2022-10-17T12:38:30.176Z,46.64
2022-10-17T12:49:19.688Z,47.13
2022-10-17T12:54:26.099Z,47.86
2022-10-17T12:59:32.716Z,47.86
2022-10-17T13:04:38.906Z,47.97
2022-10-17T13:09:46.041Z,47.97
2022-10-17T13:14:53.987Z,47.97
2022-10-17T13:20:00.355Z,47.99
2022-10-17T13:25:14.597Z,47.85
2022-10-17T13:30:29.416Z,47.95
2022-10-17T13:41:34.438Z,48.43
2022-10-17T13:46:39.781Z,48.66
2022-10-17T13:51:48.821Z,48.82
2022-10-17T13:56:59.607Z,49.43
2022-10-17T14:02:12.603Z,49.88
2022-10-17T14:07:41.589Z,50.56
2022-10-17T14:12:58.176Z,51.40
2022-10-17T14:18:07.939Z,52.04
2022-10-17T14:28:49.645Z,53.55
2022-10-17T14:33:56.508Z,54.44
2022-10-17T14:39:03.454Z,55.60
2022-10-17T14:44:16.056Z,56.74
2022-10-17T14:50:28.157Z,57.70
2022-10-17T14:55:36.449Z,58.45
2022-10-17T15:00:42.388Z,59.32
2022-10-17T15:05:50.046Z,59.90
2022-10-17T15:10:56.030Z,60.86
2022-10-17T15:16:01.973Z,61.72
2022-10-17T15:22:08.605Z,62.90
2022-10-17T15:27:18.003Z,63.48
2022-10-17T15:32:24.111Z,64.77
2022-10-17T15:37:37.584Z,64.87
2022-10-17T15:42:43.729Z,65.53
2022-10-17T15:47:54.997Z,66.73
2022-10-17T15:53:01.462Z,67.16
2022-10-17T15:58:10.967Z,67.61
2022-10-17T16:03:17.131Z,68.10
2022-10-17T16:08:23.303Z,68.68
2022-10-17T16:13:29.437Z,69.04
2022-10-17T16:18:35.653Z,69.37
2022-10-17T16:23:41.751Z,70.10
2022-10-17T16:28:48.159Z,70.66
2022-10-17T16:33:56.110Z,71.40
2022-10-17T16:39:02.065Z,72.07
2022-10-17T16:44:10.669Z,72.64
2022-10-17T16:49:18.342Z,73.04
2022-10-17T16:54:26.773Z,73.56
2022-10-17T16:59:34.128Z,74.05
2022-10-17T17:04:40.108Z,74.44
2022-10-17T17:09:46.131Z,74.85
2022-10-17T17:14:51.959Z,75.06
2022-10-17T17:19:57.948Z,75.32
2022-10-17T17:25:04.051Z,75.77
2022-10-17T17:30:11.727Z,76.36
2022-10-17T17:35:17.874Z,76.78
2022-10-17T17:40:24.003Z,77.31
2022-10-17T17:45:29.862Z,78.07
2022-10-17T17:50:38.460Z,78.96
2022-10-17T17:55:44.668Z,79.52
2022-10-17T18:00:50.893Z,79.82
2022-10-17T18:05:56.897Z,80.69
2022-10-17T18:11:03.956Z,80.90
2022-10-17T18:16:13.379Z,80.97
2022-10-17T18:21:19.566Z,81.13
2022-10-17T18:26:25.862Z,81.70
2022-10-17T18:31:36.162Z,82.27
2022-10-17T18:36:42.570Z,83.24
2022-10-17T18:41:48.558Z,83.66
2022-10-17T18:46:55.171Z,83.69
2022-10-17T18:52:01.869Z,84.23
2022-10-17T18:57:07.821Z,84.35
2022-10-17T19:02:13.642Z,84.38
2022-10-17T19:07:20.440Z,84.78
2022-10-17T19:12:26.710Z,85.36
2022-10-17T19:17:32.958Z,85.19
2022-10-17T19:22:39.163Z,85.21
2022-10-17T19:27:45.188Z,86.03
2022-10-17T19:32:51.350Z,86.47
2022-10-17T19:37:57.370Z,86.77
2022-10-17T19:43:03.180Z,86.36
2022-10-17T19:48:09.330Z,86.83
2022-10-17T19:53:15.569Z,86.54
2022-10-17T19:58:22.238Z,86.86
2022-10-17T20:03:29.267Z,86.97
2022-10-17T20:08:35.283Z,87.07
2022-10-17T20:13:41.959Z,86.94
2022-10-17T20:18:47.918Z,87.11
2022-10-17T20:23:53.851Z,87.13
2022-10-17T20:29:02.042Z,87.13
2022-10-17T20:34:08.119Z,86.94
2022-10-17T20:39:16.256Z,86.39
2022-10-17T20:44:22.286Z,86.57
2022-10-17T20:49:28.117Z,86.69
2022-10-17T20:54:34.056Z,87.03
2022-10-17T20:59:40.175Z,87.34
2022-10-17T21:04:48.160Z,87.44
2022-10-17T21:09:54.049Z,87.42
2022-10-17T21:15:00.170Z,87.65
2022-10-17T21:20:07.590Z,88.11
2022-10-17T21:25:13.460Z,87.73
2022-10-17T21:30:21.175Z,87.29
2022-10-17T21:35:26.997Z,87.02
2022-10-17T21:40:33.004Z,87.34
2022-10-17T21:45:39.209Z,87.39
2022-10-17T21:50:45.345Z,88.20
2022-10-17T21:55:51.198Z,89.88
2022-10-17T22:01:05.084Z,90.05
2022-10-17T22:06:38.753Z,90.06
2022-10-17T22:11:38.033Z,90.36
2022-10-17T22:16:45.275Z,90.61
2022-10-17T22:21:51.441Z,90.32
2022-10-17T22:26:57.234Z,90.19
2022-10-17T22:32:03.096Z,90.95
2022-10-17T22:37:08.921Z,90.81
2022-10-17T22:42:15.018Z,91.00
2022-10-17T22:47:20.831Z,92.81
2022-10-17T22:52:26.613Z,93.05
2022-10-17T22:57:32.469Z,93.62
2022-10-17T23:02:38.660Z,94.04
2022-10-17T23:07:44.849Z,94.07
2022-10-17T23:12:50.705Z,93.59
2022-10-17T23:17:56.480Z,93.83
2022-10-17T23:23:02.392Z,94.11
2022-10-17T23:28:09.282Z,94.07
2022-10-17T23:33:15.560Z,94.18
2022-10-17T23:38:21.444Z,94.21
2022-10-17T23:43:27.601Z,94.13
2022-10-17T23:48:33.397Z,94.22
2022-10-17T23:53:40.192Z,94.19
2022-10-17T23:58:46.622Z,93.90
